Latest Weather Observations for Tibooburra Airport

IDN60801

Issued at 12:05 pm EDT Saturday 1 November 2014 (issued every 30 minutes, with the page automatically refreshed every 10 minutes)

About weather observations | Map of weather stations | Latest weather observations for NSW | Other Formats
Station Details ID: 046126 Name: TIBOOBURRA AIRPORT Lat: -29.44 Lon: 142.06 Height: 176.4 m
Data from the previous 72 hours. | See also: Recent months for locations in New South Wales
Date/Time
EDT
Temp
°C
App
Temp
°C
Dew
Point
Rel
Hum
%
Delta-T
°C
Wind Press
QNH
hPa
Press
MSL
hPa
Rain
since 9 am
mm
Dir
 
Spd
km/h
Gust
km/h
Spd
kts
Gust
kts
01/12:00pm 27.7 22.7 12.1 38 9.1 SW 30 41 16 22 1011.6 1010.7 0.0
01/11:30am 27.1 21.9 11.6 38 8.9 SSW 30 39 16 21 1011.0 1010.0 0.0
01/11:00am 27.8 22.4 10.9 35 9.7 SSW 30 39 16 21 1010.6 1009.6 0.0
01/10:30am 28.3 23.0 11.4 35 9.8 SSW 30 37 16 20 1010.6 1009.9 0.0
01/10:00am 27.9 22.2 11.0 35 9.7 SSW 32 41 17 22 1010.5 1009.8 0.0
01/09:30am 26.8 20.8 10.9 37 9.1 SW 33 41 18 22 1010.2 1009.6 0.0
01/09:00am 26.6 20.7 10.3 36 9.2 SSW 32 39 17 21 1009.4 1008.8 0.0
01/08:30am 26.3 21.9 10.5 37 8.9 SSW 24 33 13 18 1008.8 1008.2 0.0
01/08:00am 25.1 21.5 9.8 38 8.5 SW 19 24 10 13 1008.5 1007.8 0.0
01/07:30am 24.0 20.6 9.2 39 8.1 SW 17 19 9 10 1007.9 1007.2 0.0
01/07:00am 23.5 20.8 9.1 40 7.8 SW 13 17 7 9 1007.0 1006.3 0.0
01/06:30am 23.9 20.9 9.1 39 8.0 SSW 15 19 8 10 1005.8 1005.1 0.0
01/06:00am 24.5 22.3 9.3 38 8.4 SSE 11 15 6 8 1005.0 1004.3 0.0
01/05:30am 24.9 20.9 9.2 37 8.6 SSW 20 26 11 14 1005.8 1005.1 0.0
01/05:00am 25.1 20.3 9.0 36 8.8 SSW 24 32 13 17 1005.9 1005.2 0.0
01/04:30am 25.5 19.7 9.3 36 8.9 SSW 30 41 16 22 1005.5 1004.8 0.0
01/04:00am 25.6 19.2 8.6 34 9.3 SW 32 44 17 24 1006.0 1005.3 0.0
01/03:30am 25.7 20.2 9.1 35 9.1 SW 28 41 15 22 1005.8 1005.1 0.0
01/03:15am 25.5 19.5 10.1 38 8.6 SW 32 50 17 27 1005.9 1005.2 0.0
01/03:00am 26.7 19.4 8.6 32 9.9 SW 37 44 20 24 1006.0 1005.3 0.0
01/02:51am 26.6 19.0 9.0 33 9.7 SW 39 43 21 23 1006.1 1005.4 0.0
01/02:39am 27.5 16.1 7.4 28 10.8 WSW 57 76 31 41 1006.5 1005.8 0.0
01/02:33am 28.7 15.8 4.2 21 12.6 WSW 61 76 33 41 1005.9 1005.2 0.0
01/02:32am 29.4 21.8 2.6 18 13.4 W 32 69 17 37 1005.9 1005.2 0.0
01/02:30am 29.1 22.4 1.6 17 13.5 W 26 33 14 18 1005.3 1004.6 0.0
01/02:00am 28.6 23.6 1.2 17 13.4 NNW 17 20 9 11 1003.9 1003.3 0.0
01/01:30am 29.5 24.8 1.1 16 13.9 NNW 15 17 8 9 1004.2 1003.6 0.0
01/01:00am 29.7 25.0 1.2 16 14.0 NW 15 17 8 9 1004.8 1004.1 0.0
01/12:30am 30.1 25.4 0.6 15 14.4 WNW 15 17 8 9 1005.0 1004.3 0.0
01/12:00am 30.8 25.2 0.2 14 14.9 WNW 19 20 10 11 1005.3 1004.6 0.0
 
Date/Time
EDT
Temp
°C
App
Temp
°C
Dew
Point
Rel
Hum
%
Delta-T
°C
Wind Press
QNH
hPa
Press
MSL
hPa
Rain
since 9 am
mm
Dir
 
Spd
km/h
Gust
km/h
Spd
kts
Gust
kts
31/11:30pm 31.1 26.0 0.5 14 15.0 WNW 17 20 9 11 1005.4 1004.7 0.0
31/11:00pm 30.5 25.3 0.0 14 14.8 WNW 17 19 9 10 1005.3 1004.6 0.0
31/10:30pm 31.4 26.5 -0.3 13 15.3 NW 15 19 8 10 1005.1 1004.4 0.0
31/10:00pm 31.4 25.8 -0.3 13 15.4 WNW 19 20 10 11 1005.0 1004.3 0.0
31/09:30pm 31.7 26.7 -1.2 12 15.7 WNW 15 17 8 9 1004.6 1003.9 0.0
31/09:00pm 31.7 27.1 -1.2 12 15.8 WNW 13 17 7 9 1004.3 1003.7 0.0
31/08:30pm 33.1 28.5 -1.3 11 16.5 W 13 15 7 8 1004.1 1003.5 0.0
31/08:00pm 34.9 28.9 -1.2 10 17.7 W 20 26 11 14 1003.8 1003.2 0.0
31/07:30pm 36.2 29.8 -1.7 9 18.5 W 22 30 12 16 1003.5 1002.8 0.0
31/07:00pm 36.4 30.4 -1.5 9 18.7 WNW 20 28 11 15 1003.3 1002.6 0.0
31/06:30pm 37.4 31.5 -2.4 8 19.4 NW 19 24 10 13 1003.4 1002.7 0.0
31/06:02pm 37.8 30.2 -2.1 8 19.6 NW 28 57 15 31 1003.4 1002.7 0.0
31/06:00pm 37.7 30.5 -2.2 8 19.6 NW 26 57 14 31 1003.5 1002.8 0.0
31/05:54pm 38.1 30.5 -1.9 8 19.7 NNW 28 57 15 31 1003.5 1002.8 0.0
31/05:30pm 38.6 32.8 -1.5 8 19.9 W 19 30 10 16 1003.6 1002.9 0.0
31/05:00pm 37.9 31.5 -2.0 8 19.7 NW 22 33 12 18 1003.9 1003.3 0.0
31/04:30pm 38.0 33.3 -1.9 8 19.6 N 13 20 7 11 1004.2 1003.6 0.0
31/04:00pm 37.6 33.2 -2.2 8 19.5 W 11 19 6 10 1004.7 1004.0 0.0
31/03:30pm 38.8 32.2 -3.2 7 20.4 NW 22 32 12 17 1005.2 1004.5 0.0
31/03:00pm 37.5 30.8 -4.1 7 19.8 NNW 22 33 12 18 1005.7 1005.0 0.0
31/02:30pm 37.6 31.1 -2.2 8 19.4 NW 22 35 12 19 1006.1 1005.4 0.0
31/02:00pm 37.0 31.0 -2.7 8 19.2 NNE 19 30 10 16 1006.6 1005.9 0.0
31/01:30pm 37.5 31.4 -2.3 8 19.4 N 20 33 11 18 1007.1 1006.4 0.0
31/01:00pm 37.0 31.4 -2.7 8 19.2 NNE 17 32 9 17 1007.6 1006.9 0.0
31/12:30pm 35.7 30.2 -2.0 9 18.2 NNE 17 26 9 14 1008.1 1007.4 0.0
31/12:00pm 35.8 30.3 -2.0 9 18.3 NNE 17 24 9 13 1008.6 1007.9 0.0
31/11:30am 35.5 30.6 -0.8 10 17.9 NNE 15 26 8 14 1008.9 1008.3 0.0
31/11:00am 33.8 27.7 -2.0 10 17.1 ENE 20 32 11 17 1009.5 1008.9 0.0
31/10:30am 33.3 26.4 -2.4 10 16.9 ENE 24 37 13 20 1009.4 1008.8 0.0
31/10:00am 31.5 25.7 -1.3 12 15.6 ENE 19 22 10 12 1010.0 1009.4 0.0
31/09:30am 30.8 25.3 -1.9 12 15.3 ENE 17 20 9 11 1010.2 1009.6 0.0
31/09:00am 29.2 25.0 -1.0 14 14.2 ENE 11 15 6 8 1010.2 1009.6 0.0
31/08:30am 27.9 23.3 -1.1 15 13.5 NE 13 15 7 8 1009.9 1009.3 0.0
31/08:00am 25.9 22.1 -1.0 17 12.4 NNE 9 11 5 6 1010.1 1009.5 0.0
31/07:30am 25.0 20.9 -0.2 19 11.7 NE 11 13 6 7 1010.2 1009.6 0.0
31/07:00am 24.7 20.6 -0.4 19 11.6 NE 11 13 6 7 1010.2 1009.6 0.0
31/06:30am 24.9 20.4 -0.3 19 11.6 NE 13 15 7 8 1010.0 1009.4 0.0
31/06:00am 24.4 19.6 0.0 20 11.3 ENE 15 15 8 8 1009.6 1009.0 0.0
31/05:30am 24.6 20.1 -0.5 19 11.5 ENE 13 13 7 7 1009.7 1009.1 0.0
31/05:00am 25.0 21.7 -0.2 19 11.7 E 7 9 4 5 1009.7 1009.1 0.0
31/04:30am 24.9 21.2 -0.3 19 11.6 E 9 11 5 6 1009.6 1009.0 0.0
31/04:00am 24.7 21.6 0.3 20 11.4 ESE 6 7 3 4 1009.6 1009.0 0.0
31/03:30am 23.0 19.6 -0.5 21 10.6 SW 7 9 4 5 1009.9 1009.3 0.0
31/03:00am 23.4 20.3 -0.1 21 10.8 S 6 7 3 4 1010.1 1009.5 0.0
31/02:30am 22.7 19.0 -0.1 22 10.4 WSW 9 11 5 6 1010.6 1009.9 0.0
31/02:00am 23.6 20.3 0.0 21 10.8 SW 7 11 4 6 1010.8 1010.1 0.0
31/01:30am 24.0 20.8 -0.3 20 11.1 S 6 7 3 4 1011.0 1010.3 0.0
31/01:00am 24.3 20.5 -0.8 19 11.4 SE 9 17 5 9 1011.3 1010.6 0.0
31/12:30am 25.2 21.1 0.0 19 11.7 E 11 13 6 7 1011.4 1010.7 0.0
31/12:00am 25.2 21.5 0.0 19 11.7 ESE 9 13 5 7 1011.6 1010.9 0.0
 
Date/Time
EDT
Temp
°C
App
Temp
°C
Dew
Point
Rel
Hum
%
Delta-T
°C
Wind Press
QNH
hPa
Press
MSL
hPa
Rain
since 9 am
mm
Dir
 
Spd
km/h
Gust
km/h
Spd
kts
Gust
kts
30/11:30pm 25.6 21.1 -0.5 18 12.1 E 13 13 7 7 1011.7 1011.0 0.0
30/11:00pm 25.6 21.5 -0.5 18 12.1 E 11 13 6 7 1011.8 1011.1 0.0
30/10:30pm 26.7 22.6 -0.3 17 12.6 ESE 11 13 6 7 1012.0 1011.3 0.0
30/10:00pm 27.3 23.5 -0.7 16 13.1 SE 9 11 5 6 1012.0 1011.3 0.0
30/09:30pm 27.6 23.0 -1.3 15 13.4 ESE 13 15 7 8 1011.8 1011.1 0.0
30/09:00pm 28.7 24.1 -1.4 14 14.0 ESE 13 15 7 8 1011.6 1010.9 0.0
30/08:30pm 30.6 26.0 -0.9 13 15.0 SE 13 17 7 9 1011.4 1010.7 0.0
30/08:00pm 31.3 27.4 -1.5 12 15.5 SE 9 13 5 7 1011.2 1010.5 0.0
30/07:30pm 32.7 28.0 -1.6 11 16.4 SSE 13 17 7 9 1011.0 1010.3 0.0
30/07:00pm 33.5 30.0 -1.0 11 16.7 SSE 7 11 4 6 1010.9 1010.2 0.0
30/06:30pm 34.0 29.3 -1.9 10 17.2 SSE 13 20 7 11 1010.9 1010.2 0.0
30/06:00pm 34.3 29.2 -1.7 10 17.4 SSE 15 20 8 11 1010.9 1010.2 0.0
30/05:30pm 34.5 29.8 -1.5 10 17.4 SE 13 20 7 11 1010.9 1010.2 0.0
30/05:00pm 35.0 32.1 -1.1 10 17.7 S 4 13 2 7 1011.2 1010.5 0.0
30/04:30pm 34.8 29.8 -1.3 10 17.6 S 15 24 8 13 1011.3 1010.6 0.0
30/04:00pm 34.8 30.5 -1.3 10 17.6 SW 11 17 6 9 1011.5 1010.8 0.0
30/03:30pm 35.0 29.3 -1.1 10 17.6 S 19 28 10 15 1011.8 1011.1 0.0
30/03:00pm 34.6 30.7 -1.4 10 17.5 S 9 17 5 9 1012.3 1011.6 0.0
30/02:30pm 34.0 29.3 -1.9 10 17.2 SSW 13 19 7 10 1012.7 1012.0 0.0
30/02:00pm 33.3 29.3 -2.4 10 16.9 SE 9 17 5 9 1013.2 1012.5 0.0
30/01:30pm 33.7 30.5 -0.8 11 16.8 S 6 11 3 6 1013.5 1012.8 0.0
30/01:00pm 33.4 29.3 0.1 12 16.4 E 11 17 6 9 1014.0 1013.4 0.0
30/12:30pm 32.9 29.0 0.9 13 15.9 ESE 11 22 6 12 1014.6 1014.0 0.0
30/12:00pm 32.1 27.5 1.3 14 15.4 ESE 15 22 8 12 1015.0 1014.4 0.0
30/11:30am 31.2 27.0 1.5 15 14.8 E 13 20 7 11 1015.5 1014.9 0.0
30/11:00am 31.2 27.1 2.4 16 14.5 NE 13 24 7 13 1015.8 1015.2 0.0
30/10:30am 31.0 26.4 3.9 18 14.0 NE 17 26 9 14 1015.9 1015.3 0.0
30/10:00am 30.0 25.1 3.9 19 13.4 NE 19 26 10 14 1015.9 1015.3 0.0
30/09:30am 27.9 23.3 3.6 21 12.3 ENE 17 20 9 11 1016.1 1015.5 0.0
30/09:00am 26.5 22.0 4.3 24 11.2 NE 17 20 9 11 1016.1 1015.5 0.0
30/08:30am 24.3 20.8 3.6 26 10.2 ENE 11 15 6 8 1016.0 1015.4 0.0
30/08:00am 23.1 20.0 3.6 28 9.5 E 9 11 5 6 1015.8 1015.2 0.0
30/07:30am 20.8 19.4 3.5 32 8.3 CALM 0 0 0 0 1015.5 1014.9 0.0
30/07:00am 18.2 15.4 2.1 34 7.4 SSW 6 7 3 4 1015.5 1014.9 0.0
30/06:30am 18.0 15.6 2.3 35 7.2 SSW 4 7 2 4 1015.4 1014.8 0.0
30/06:00am 18.9 17.3 2.7 34 7.5 CALM 0 0 0 0 1015.0 1014.4 0.0
30/05:30am 19.6 16.9 2.9 33 7.9 ESE 6 7 3 4 1014.7 1014.1 0.0
30/05:00am 19.5 16.8 2.4 32 8.0 ESE 6 7 3 4 1014.6 1014.0 0.0
30/04:30am 20.8 17.6 3.1 31 8.4 E 9 9 5 5 1014.4 1013.8 0.0
30/04:00am 20.8 17.6 3.1 31 8.4 E 9 11 5 6 1014.3 1013.7 0.0
30/03:30am 21.3 18.1 3.0 30 8.7 E 9 9 5 5 1014.6 1014.0 0.0
30/03:00am 21.5 18.2 2.7 29 8.9 E 9 13 5 7 1014.8 1014.2 0.0
30/02:30am 22.5 19.3 3.1 28 9.4 E 9 9 5 5 1014.7 1014.1 0.0
30/02:00am 22.2 20.6 2.3 27 9.4 CALM 0 0 0 0 1015.1 1014.5 0.0
30/01:30am 22.0 20.0 2.2 27 9.4 SSW 2 7 1 4 1015.3 1014.7 0.0
30/01:00am 21.7 18.6 1.4 26 9.4 SSW 7 7 4 4 1015.5 1014.9 0.0
30/12:30am 22.7 19.7 2.2 26 9.7 S 7 9 4 5 1015.6 1015.0 0.0
30/12:00am 22.5 19.0 1.5 25 9.8 S 9 9 5 5 1015.9 1015.3 0.0
 
Date/Time
EDT
Temp
°C
App
Temp
°C
Dew
Point
Rel
Hum
%
Delta-T
°C
Wind Press
QNH
hPa
Press
MSL
hPa
Rain
since 9 am
mm
Dir
 
Spd
km/h
Gust
km/h
Spd
kts
Gust
kts
29/11:30pm 22.9 19.0 1.3 24 10.1 S 11 11 6 6 1016.0 1015.4 0.0
29/11:00pm 23.6 20.1 1.3 23 10.5 S 9 11 5 6 1016.3 1015.6 0.0
29/10:30pm 24.2 20.3 1.2 22 10.8 S 11 13 6 7 1016.1 1015.5 0.0
29/10:00pm 25.7 21.5 1.8 21 11.5 SSE 13 13 7 7 1015.7 1015.1 0.0
29/09:30pm 26.1 22.1 0.7 19 12.0 SSE 11 13 6 7 1015.5 1014.9 0.0
29/09:00pm 27.0 23.0 0.7 18 12.5 S 11 13 6 7 1015.4 1014.8 0.0
29/08:30pm 28.2 23.9 0.9 17 13.2 SSE 13 15 7 8 1015.2 1014.6 0.0
29/08:00pm 29.2 25.2 0.8 16 13.8 S 11 15 6 8 1014.9 1014.3 0.0
29/07:30pm 30.3 26.7 0.8 15 14.4 SSE 9 19 5 10 1014.7 1014.1 0.0
29/07:00pm 30.9 26.6 1.3 15 14.7 S 13 17 7 9 1014.5 1013.9 0.0
29/06:30pm 31.4 27.8 0.7 14 15.1 SSE 9 15 5 8 1014.5 1013.9 0.0
29/06:00pm 31.6 27.3 0.9 14 15.2 SE 13 20 7 11 1014.3 1013.7 0.0
29/05:30pm 31.7 28.0 -0.1 13 15.5 SSE 9 17 5 9 1014.4 1013.8 0.0
29/05:00pm 32.4 28.8 0.5 13 15.7 S 9 24 5 13 1014.6 1014.0 0.0
29/04:30pm 31.5 27.8 -0.2 13 15.4 E 9 20 5 11 1014.8 1014.2 0.0
29/04:00pm 31.8 28.1 0.0 13 15.5 SSW 9 15 5 8 1015.2 1014.6 0.0
29/03:30pm 31.2 26.8 0.6 14 15.0 S 13 24 7 13 1015.8 1015.2 0.0
29/03:00pm 31.0 26.6 0.4 14 14.9 E 13 22 7 12 1016.1 1015.5 0.0
29/02:30pm 30.4 26.8 0.9 15 14.5 ESE 9 15 5 8 1016.8 1016.1 0.0
29/02:00pm 31.0 25.8 2.3 16 14.4 E 19 30 10 16 1017.1 1016.4 0.0
29/01:30pm 29.5 24.6 1.9 17 13.7 SSE 17 26 9 14 1017.6 1016.9 0.0
29/01:00pm 29.7 25.2 2.1 17 13.7 SSE 15 28 8 15 1018.1 1017.4 0.0
29/12:30pm 28.4 23.8 1.8 18 13.1 SSE 15 26 8 14 1018.6 1017.9 0.0

Other Formats:

Comma delimited format used in spreadsheet applications
http://www.bom.gov.au/fwo/IDN60801/IDN60801.95485.axf

JavaScript Object Notation format (JSON) in row-major order
http://www.bom.gov.au/fwo/IDN60801/IDN60801.95485.json